Период от 24.06.2021 до 25.06.2021

Показания с 24.06.2021 по 25.06.2021 ДКХЗ_показания_за_период_24.06.2021-25.06.2021.csv
Пост Дата/время Пыль PM2,5 Пыль PM10 CO SO2 NO2 NO H2S NH3 Направление ветра в градусах Ветер Температура Давление Влажность Осадки
PAN1 00:00:04 24.06.2021 0.0123 0.0273 1.0308 0.0250 0.0321 0.0400 0.0006 0.0038 296.1500 0.6700 24.7800 0.0038 752.5750 63.6500
PAN1 00:20:04 24.06.2021 0.0180 0.0337 1.0539 0.0252 0.0330 0.0400 0.0005 0.0054 260.0500 0.3700 24.4550 0.0054 752.4900 64.9250
PAN1 00:40:04 24.06.2021 0.0134 0.0250 1.1100 0.0343 0.0273 0.0400 0.0005 0.0057 248.7500 0.3700 24.2850 0.0057 752.3350 65.8100
PAN1 01:00:05 24.06.2021 0.0130 0.0226 1.0619 0.0400 0.0264 0.0400 0.0004 0.0043 201.1500 0.7150 24.0500 0.0043 752.3000 66.4400
PAN1 01:20:05 24.06.2021 0.0196 0.0342 1.4571 0.0179 0.0302 0.0400 0.0005 0.0061 219.8500 0.6300 23.8450 0.0061 752.3000 67.5000
PAN1 02:00:04 24.06.2021 0.0164 0.0298 1.4442 0.0326 0.0312 0.0400 0.0005 0.0052 197.5240 0.5810 23.0143 0.0052 752.2190 71.9143
PAN1 02:20:04 24.06.2021 0.0163 0.0321 1.7294 0.0451 0.0297 0.0400 0.0005 0.0060 238.4000 0.5900 22.6500 0.0060 752.2300 73.6150
PAN1 02:40:04 24.06.2021 0.0131 0.0254 2.3960 0.0093 0.0305 0.0400 0.0005 0.0044 244.8500 0.7950 22.4400 0.0044 752.2850 73.8550
PAN1 03:00:04 24.06.2021 0.0115 0.0233 2.7972 0.0128 0.0307 0.0400 0.0005 0.0054 239.3000 0.6700 22.2550 0.0054 752.2300 74.6150
PAN1 03:20:04 24.06.2021 0.0111 0.0229 2.6106 0.0143 0.0330 0.0400 0.0004 0.0062 219.5500 0.8100 22.0800 0.0062 752.1100 74.3250
PAN1 03:40:05 24.06.2021 0.0105 0.0219 2.7053 0.0210 0.0313 0.0400 0.0007 0.0054 233.3000 0.8850 22.2400 0.0054 752.1300 72.0750
PAN1 04:00:03 24.06.2021 0.0163 0.0310 2.6080 0.0329 0.0290 0.0400 0.0004 0.0044 237.4000 0.7900 22.3000 0.0044 752.0100 70.9300
PAN1 04:20:05 24.06.2021 0.0136 0.0270 2.5041 0.0448 0.0276 0.0400 0.0006 0.0048 242.8500 0.8950 22.3000 0.0048 752.0000 70.0750
PAN1 04:40:03 24.06.2021 0.0123 0.0255 2.4298 0.0468 0.0262 0.0400 0.0005 0.0049 233.2000 0.8700 22.1300 0.0049 751.9950 70.6750
PAN1 05:00:04 24.06.2021 0.0115 0.0257 2.1499 0.0460 0.0262 0.0400 0.0005 0.0058 256.9000 0.7950 21.9750 0.0058 751.9500 70.9250
PAN1 05:20:05 24.06.2021 0.0123 0.0259 2.5023 0.0422 0.0250 0.0400 0.0005 0.0046 256.7500 0.7250 21.7700 0.0046 751.8300 71.8150
PAN1 05:40:04 24.06.2021 0.0147 0.0315 2.3390 0.0445 0.0252 0.0400 0.0005 0.0050 253.1500 0.7600 21.8000 0.0050 751.7400 71.6950
PAN1 06:00:05 24.06.2021 0.0267 0.0511 2.5821 0.0396 0.0285 0.0400 0.0006 0.0044 262.7500 0.6900 21.9450 0.0044 751.7550 70.9450
PAN1 06:20:04 24.06.2021 0.0315 0.0646 2.6166 0.0393 0.0329 0.0400 0.0005 0.0048 243.0000 0.6950 22.3400 0.0048 751.8100 69.4100
PAN1 06:40:05 24.06.2021 0.0171 0.0332 2.5563 0.0266 0.0296 0.0400 0.0005 0.0047 257.0500 0.6350 23.0000 0.0047 751.8000 66.5600
PAN1 07:00:04 24.06.2021 0.0104 0.0195 2.5905 0.0177 0.0085 0.0400 0.0005 0.0052 306.4000 1.0900 23.3500 0.0052 751.8750 64.1300
PAN1 07:20:04 24.06.2021 0.0098 0.0205 1.7961 0.0179 0.0351 0.0400 0.0004 0.0051 315.9500 1.4050 23.4950 0.0051 751.9650 63.9850
PAN1 07:40:05 24.06.2021 0.0091 0.0191 1.5308 0.0032 0.0337 0.0400 0.0004 0.0049 313.0000 1.8100 23.8200 0.0049 751.9550 63.0200
PAN1 08:00:04 24.06.2021 0.0089 0.0190 1.4016 0.0409 0.0308 0.0400 0.0005 0.0034 307.1500 1.3650 24.5350 0.0034 752.0000 60.8850
PAN1 08:20:05 24.06.2021 0.0086 0.0178 1.2911 0.0386 0.0303 0.0400 0.0006 0.0056 304.1000 1.5150 24.7650 0.0056 751.9600 59.1950
PAN1 08:40:04 24.06.2021 0.0086 0.0216 1.2261 0.0333 0.0313 0.0400 0.0005 0.0049 295.5000 1.6900 25.1400 0.0049 751.8100 57.3400
PAN1 09:00:05 24.06.2021 0.0067 0.0163 1.1504 0.0316 0.0319 0.0400 0.0004 0.0044 269.9500 2.4450 25.4800 0.0044 752.0150 54.1150
PAN1 09:20:05 24.06.2021 0.0074 0.0187 1.1168 0.0265 0.0327 0.0400 0.0005 0.0054 275.0500 1.9950 26.1400 0.0054 751.9950 51.4900
PAN1 09:40:04 24.06.2021 0.0074 0.0195 1.0700 0.0239 0.0308 0.0400 0.0005 0.0045 294.8000 2.0600 26.6100 0.0045 751.9450 50.4250
PAN1 10:00:04 24.06.2021 0.0084 0.0260 1.0310 0.0213 0.0331 0.0400 0.0005 0.0046 221.6000 2.1500 26.9450 0.0046 752.0050 48.2650
PAN1 10:20:05 24.06.2021 0.0099 0.0338 1.0028 0.0197 0.0315 0.0400 0.0006 0.0055 265.9000 2.1950 26.9050 0.0055 752.2050 47.6800
PAN1 10:40:04 24.06.2021 0.0138 0.0591 0.9754 0.0178 0.0308 0.0400 0.0006 0.0051 172.0500 2.0700 27.0550 0.0051 752.2000 47.9600
PAN1 11:00:05 24.06.2021 0.0083 0.0228 0.9556 0.0158 0.0298 0.0400 0.0005 0.0037 196.8000 2.7200 27.6300 0.0037 752.2600 46.7350
PAN1 11:20:05 24.06.2021 0.0088 0.0234 0.9351 0.0120 0.0316 0.0400 0.0005 0.0048 162.9500 1.9950 28.1350 0.0048 752.3000 46.1750
PAN1 11:40:05 24.06.2021 0.0089 0.0247 0.9194 0.0089 0.0329 0.0400 0.0005 0.0039 139.1500 2.1100 28.0150 0.0039 752.2650 47.7350
PAN1 12:00:05 24.06.2021 0.0097 0.0280 0.9038 0.0080 0.0332 0.0400 0.0005 0.0051 200.1000 2.3600 29.2650 0.0051 752.2900 44.8550
PAN1 12:20:04 24.06.2021 0.0095 0.0288 0.8928 0.0075 0.0328 0.0400 0.0005 0.0051 237.9000 1.6400 29.8450 0.0051 752.3250 45.1550
PAN1 12:40:05 24.06.2021 0.0106 0.0321 0.8912 0.0048 0.0346 0.0400 0.0006 0.0056 217.5000 2.3450 29.9500 0.0056 752.4000 43.4850
PAN1 13:00:04 24.06.2021 0.0119 0.0361 0.8733 0.0225 0.0245 0.0400 0.0005 0.0056 221.6500 2.4600 30.1400 0.0056 752.4500 41.9100
PAN1 13:20:04 24.06.2021 0.0121 0.0372 0.8689 0.0357 0.0163 0.0400 0.0005 0.0038 237.8000 2.4600 30.2250 0.0038 752.4600 41.7900
PAN1 13:40:05 24.06.2021 0.0108 0.0328 0.8673 0.0359 0.0170 0.0400 0.0006 0.0052 248.3500 2.0700 30.4300 0.0052 752.5850 41.8250
PAN1 14:00:05 24.06.2021 0.0090 0.0272 0.8354 0.0425 0.0084 0.0400 0.0005 0.0051 311.5500 2.6050 30.5550 0.0051 752.6000 39.0550
PAN1 14:20:04 24.06.2021 0.0085 0.0254 0.8232 0.0399 0.0117 0.0400 0.0005 0.0066 315.9500 1.6950 30.1900 0.0066 752.6900 41.4050
PAN1 14:40:05 24.06.2021 0.0089 0.0267 0.8280 0.0369 0.0084 0.0400 0.0006 0.0057 295.6000 1.6050 30.2100 0.0057 752.6050 42.6050
PAN1 15:00:04 24.06.2021 0.0073 0.0223 0.7940 0.0390 0.0110 0.0400 0.0004 0.0051 322.4000 2.9050 30.9450 0.0051 752.5950 36.6900
PAN1 15:20:05 24.06.2021 0.0074 0.0228 0.8073 0.0379 0.0171 0.0400 0.0005 0.0051 262.4500 2.2600 30.5600 0.0051 752.6550 36.1350
PAN1 15:40:05 24.06.2021 0.0068 0.0196 0.7918 0.0358 0.0116 0.0400 0.0005 0.0043 290.5000 2.5700 30.6650 0.0043 752.6100 37.5950
PAN1 16:00:05 24.06.2021 0.0074 0.0212 0.8020 0.0353 0.0216 0.0400 0.0005 0.0048 226.1000 2.9050 30.9200 0.0048 752.6950 38.6250
PAN1 16:20:04 24.06.2021 0.0079 0.0218 0.7892 0.0347 0.0234 0.0400 0.0006 0.0046 260.9500 3.2500 30.6300 0.0046 752.6700 40.3450
PAN1 16:40:05 24.06.2021 0.0085 0.0231 0.7881 0.0340 0.0300 0.0400 0.0006 0.0066 199.1000 2.4250 30.0750 0.0066 752.6700 43.4750
PAN1 17:00:05 24.06.2021 0.0082 0.0226 0.7883 0.0355 0.0365 0.0400 0.0005 0.0044 241.9000 1.7400 29.3900 0.0044 752.8650 46.2900
PAN1 17:20:05 24.06.2021 0.0084 0.0263 0.7696 0.0341 0.0352 0.0400 0.0005 0.0042 269.0000 2.2700 28.6850 0.0042 752.8900 48.0150
PAN1 17:40:04 24.06.2021 0.0079 0.0216 0.7679 0.0341 0.0315 0.0400 0.0005 0.0067 322.5000 2.3850 28.2500 0.0067 752.8050 49.5150
PAN1 18:00:04 24.06.2021 0.0127 0.0577 0.7557 0.0383 0.0344 0.0400 0.0005 0.0042 273.2500 2.2850 27.4500 0.0042 752.9100 51.0600
PAN1 18:20:05 24.06.2021 0.0072 0.0197 0.7532 0.0420 0.0317 0.0400 0.0006 0.0051 80.6500 2.5400 27.0500 0.0051 752.9300 52.4050
PAN1 18:40:04 24.06.2021 0.0080 0.0214 0.7701 0.0409 0.0333 0.0400 0.0006 0.0047 149.1500 2.2350 26.9400 0.0047 752.9100 52.4800
PAN1 19:00:05 24.06.2021 0.0075 0.0207 0.7782 0.0395 0.0335 0.0400 0.0005 0.0051 80.1500 1.4000 26.6450 0.0051 752.9100 54.1850
PAN1 19:20:04 24.06.2021 0.0090 0.0270 0.8243 0.0407 0.0337 0.0400 0.0004 0.0062 175.6500 1.2450 26.4200 0.0062 752.9000 55.4500
PAN1 19:40:04 24.06.2021 0.0093 0.0233 0.8282 0.0415 0.0362 0.0400 0.0005 0.0048 100.5500 1.0250 26.3400 0.0048 752.8350 55.4500
PAN1 20:00:05 24.06.2021 0.0094 0.0272 0.8422 0.0444 0.0301 0.0400 0.0004 0.0054 290.1000 0.7750 26.3300 0.0054 752.7900 55.3300
PAN1 20:20:04 24.06.2021 0.0092 0.0282 0.8602 0.0442 0.0340 0.0400 0.0005 0.0049 182.7000 0.7850 25.9600 0.0049 752.6900 57.3600